sensor_id;sensor_type;location;lat;lon;timestamp;P1;durP1;ratioP1;P2;durP2;ratioP2
75499;SDS011;64076;51.466;7.260;2023-12-29T00:00:38;2.60;;;1.30;;
75499;SDS011;64076;51.466;7.260;2023-12-29T00:03:04;2.37;;;1.10;;
75499;SDS011;64076;51.466;7.260;2023-12-29T00:05:30;3.15;;;1.30;;
75499;SDS011;64076;51.466;7.260;2023-12-29T00:07:55;3.28;;;1.30;;
75499;SDS011;64076;51.466;7.260;2023-12-29T00:10:21;3.80;;;1.40;;
75499;SDS011;64076;51.466;7.260;2023-12-29T00:12:47;2.20;;;1.10;;
75499;SDS011;64076;51.466;7.260;2023-12-29T00:15:12;2.70;;;1.02;;
75499;SDS011;64076;51.466;7.260;2023-12-29T00:17:38;3.83;;;1.20;;
75499;SDS011;64076;51.466;7.260;2023-12-29T00:20:05;2.47;;;1.48;;
75499;SDS011;64076;51.466;7.260;2023-12-29T00:22:33;1.90;;;1.20;;
75499;SDS011;64076;51.466;7.260;2023-12-29T00:24:59;2.75;;;1.10;;
75499;SDS011;64076;51.466;7.260;2023-12-29T00:27:24;2.40;;;1.13;;
75499;SDS011;64076;51.466;7.260;2023-12-29T00:29:50;3.22;;;1.10;;
75499;SDS011;64076;51.466;7.260;2023-12-29T00:32:16;2.33;;;1.20;;
75499;SDS011;64076;51.466;7.260;2023-12-29T00:34:41;3.67;;;1.20;;
75499;SDS011;64076;51.466;7.260;2023-12-29T00:37:07;2.35;;;1.30;;
75499;SDS011;64076;51.466;7.260;2023-12-29T00:39:33;2.27;;;1.13;;
75499;SDS011;64076;51.466;7.260;2023-12-29T00:42:03;2.78;;;1.30;;
75499;SDS011;64076;51.466;7.260;2023-12-29T00:44:29;2.08;;;1.13;;
75499;SDS011;64076;51.466;7.260;2023-12-29T00:46:55;3.53;;;1.23;;
75499;SDS011;64076;51.466;7.260;2023-12-29T00:49:20;3.20;;;1.30;;
75499;SDS011;64076;51.466;7.260;2023-12-29T00:51:47;2.10;;;1.20;;
75499;SDS011;64076;51.466;7.260;2023-12-29T00:54:12;2.55;;;1.17;;
75499;SDS011;64076;51.466;7.260;2023-12-29T00:56:38;2.30;;;1.20;;
75499;SDS011;64076;51.466;7.260;2023-12-29T00:59:04;2.47;;;1.00;;
75499;SDS011;64076;51.466;7.260;2023-12-29T01:01:33;3.20;;;1.10;;
75499;SDS011;64076;51.466;7.260;2023-12-29T01:04:00;2.55;;;1.13;;
75499;SDS011;64076;51.466;7.260;2023-12-29T01:06:25;3.47;;;1.10;;
75499;SDS011;64076;51.466;7.260;2023-12-29T01:08:51;2.20;;;1.02;;
75499;SDS011;64076;51.466;7.260;2023-12-29T01:11:16;3.13;;;1.20;;
75499;SDS011;64076;51.466;7.260;2023-12-29T01:13:42;3.43;;;1.40;;
75499;SDS011;64076;51.466;7.260;2023-12-29T01:16:07;2.70;;;1.33;;
75499;SDS011;64076;51.466;7.260;2023-12-29T01:18:33;2.22;;;1.20;;
75499;SDS011;64076;51.466;7.260;2023-12-29T01:20:58;2.53;;;1.30;;
75499;SDS011;64076;51.466;7.260;2023-12-29T01:23:24;2.37;;;1.10;;
75499;SDS011;64076;51.466;7.260;2023-12-29T01:25:49;2.92;;;1.05;;
75499;SDS011;64076;51.466;7.260;2023-12-29T01:28:15;1.90;;;1.07;;
75499;SDS011;64076;51.466;7.260;2023-12-29T01:30:40;2.33;;;1.20;;
75499;SDS011;64076;51.466;7.260;2023-12-29T01:33:06;2.67;;;1.45;;
75499;SDS011;64076;51.466;7.260;2023-12-29T01:35:31;3.60;;;1.07;;
75499;SDS011;64076;51.466;7.260;2023-12-29T01:37:57;3.37;;;1.50;;
75499;SDS011;64076;51.466;7.260;2023-12-29T01:40:22;2.85;;;1.20;;
75499;SDS011;64076;51.466;7.260;2023-12-29T01:42:48;1.90;;;1.20;;
75499;SDS011;64076;51.466;7.260;2023-12-29T01:45:21;2.13;;;1.10;;
75499;SDS011;64076;51.466;7.260;2023-12-29T01:47:48;2.50;;;1.30;;
75499;SDS011;64076;51.466;7.260;2023-12-29T01:50:18;2.70;;;0.90;;
75499;SDS011;64076;51.466;7.260;2023-12-29T01:52:45;2.80;;;1.27;;
75499;SDS011;64076;51.466;7.260;2023-12-29T01:55:15;2.33;;;1.40;;
75499;SDS011;64076;51.466;7.260;2023-12-29T01:57:43;2.42;;;1.10;;
75499;SDS011;64076;51.466;7.260;2023-12-29T02:00:10;2.33;;;1.10;;
75499;SDS011;64076;51.466;7.260;2023-12-29T02:02:37;2.17;;;1.17;;
75499;SDS011;64076;51.466;7.260;2023-12-29T02:05:02;2.73;;;1.30;;
75499;SDS011;64076;51.466;7.260;2023-12-29T02:07:28;2.85;;;1.20;;
75499;SDS011;64076;51.466;7.260;2023-12-29T02:09:56;2.47;;;1.33;;
75499;SDS011;64076;51.466;7.260;2023-12-29T02:12:23;2.95;;;1.00;;
75499;SDS011;64076;51.466;7.260;2023-12-29T02:14:49;3.13;;;1.10;;
75499;SDS011;64076;51.466;7.260;2023-12-29T02:17:21;2.22;;;1.17;;
75499;SDS011;64076;51.466;7.260;2023-12-29T02:19:51;2.50;;;1.10;;
75499;SDS011;64076;51.466;7.260;2023-12-29T02:22:17;2.55;;;1.00;;
75499;SDS011;64076;51.466;7.260;2023-12-29T02:24:44;3.03;;;1.17;;
75499;SDS011;64076;51.466;7.260;2023-12-29T02:27:23;2.50;;;1.20;;
75499;SDS011;64076;51.466;7.260;2023-12-29T02:32:36;2.85;;;1.27;;
75499;SDS011;64076;51.466;7.260;2023-12-29T02:35:05;2.05;;;1.20;;
75499;SDS011;64076;51.466;7.260;2023-12-29T02:37:35;2.90;;;1.20;;
75499;SDS011;64076;51.466;7.260;2023-12-29T02:40:02;3.10;;;1.10;;
75499;SDS011;64076;51.466;7.260;2023-12-29T02:42:29;2.95;;;1.20;;
75499;SDS011;64076;51.466;7.260;2023-12-29T02:44:55;2.42;;;0.88;;
75499;SDS011;64076;51.466;7.260;2023-12-29T02:47:20;3.20;;;1.20;;
75499;SDS011;64076;51.466;7.260;2023-12-29T02:49:46;3.67;;;1.48;;
75499;SDS011;64076;51.466;7.260;2023-12-29T02:52:12;2.53;;;1.10;;
75499;SDS011;64076;51.466;7.260;2023-12-29T02:54:38;2.10;;;1.17;;
75499;SDS011;64076;51.466;7.260;2023-12-29T02:57:03;2.23;;;1.20;;
75499;SDS011;64076;51.466;7.260;2023-12-29T02:59:29;2.60;;;1.10;;
75499;SDS011;64076;51.466;7.260;2023-12-29T03:01:55;2.80;;;1.30;;
75499;SDS011;64076;51.466;7.260;2023-12-29T03:04:20;3.73;;;1.20;;
75499;SDS011;64076;51.466;7.260;2023-12-29T03:06:46;3.47;;;1.35;;
75499;SDS011;64076;51.466;7.260;2023-12-29T03:09:11;3.40;;;1.40;;
75499;SDS011;64076;51.466;7.260;2023-12-29T03:11:37;2.53;;;1.13;;
75499;SDS011;64076;51.466;7.260;2023-12-29T03:14:02;2.95;;;1.20;;
75499;SDS011;64076;51.466;7.260;2023-12-29T03:16:28;2.30;;;1.10;;
75499;SDS011;64076;51.466;7.260;2023-12-29T03:18:54;2.45;;;1.00;;
75499;SDS011;64076;51.466;7.260;2023-12-29T03:21:19;2.93;;;1.20;;
75499;SDS011;64076;51.466;7.260;2023-12-29T03:23:45;2.67;;;1.13;;
75499;SDS011;64076;51.466;7.260;2023-12-29T03:26:11;2.17;;;1.20;;
75499;SDS011;64076;51.466;7.260;2023-12-29T03:28:37;3.83;;;1.20;;
75499;SDS011;64076;51.466;7.260;2023-12-29T03:31:02;3.10;;;1.30;;
75499;SDS011;64076;51.466;7.260;2023-12-29T03:33:28;2.40;;;1.20;;
75499;SDS011;64076;51.466;7.260;2023-12-29T03:35:54;1.90;;;1.10;;
75499;SDS011;64076;51.466;7.260;2023-12-29T03:38:20;2.60;;;1.10;;
75499;SDS011;64076;51.466;7.260;2023-12-29T03:40:45;2.70;;;1.17;;
75499;SDS011;64076;51.466;7.260;2023-12-29T03:43:11;2.47;;;1.17;;
75499;SDS011;64076;51.466;7.260;2023-12-29T03:45:36;2.87;;;1.27;;
75499;SDS011;64076;51.466;7.260;2023-12-29T03:48:02;2.80;;;1.03;;
75499;SDS011;64076;51.466;7.260;2023-12-29T03:50:28;3.63;;;1.48;;
75499;SDS011;64076;51.466;7.260;2023-12-29T03:52:53;3.13;;;1.30;;
75499;SDS011;64076;51.466;7.260;2023-12-29T03:55:19;3.07;;;1.30;;
75499;SDS011;64076;51.466;7.260;2023-12-29T03:57:44;2.67;;;1.20;;
75499;SDS011;64076;51.466;7.260;2023-12-29T04:00:13;2.53;;;1.10;;
75499;SDS011;64076;51.466;7.260;2023-12-29T04:02:39;2.10;;;1.05;;
75499;SDS011;64076;51.466;7.260;2023-12-29T04:05:06;2.77;;;1.23;;
75499;SDS011;64076;51.466;7.260;2023-12-29T04:07:33;2.40;;;1.10;;
75499;SDS011;64076;51.466;7.260;2023-12-29T04:09:59;2.70;;;1.08;;
75499;SDS011;64076;51.466;7.260;2023-12-29T04:12:24;3.60;;;1.30;;
75499;SDS011;64076;51.466;7.260;2023-12-29T04:14:50;4.13;;;1.20;;
75499;SDS011;64076;51.466;7.260;2023-12-29T04:17:15;1.98;;;1.05;;
75499;SDS011;64076;51.466;7.260;2023-12-29T04:19:41;3.47;;;0.93;;
75499;SDS011;64076;51.466;7.260;2023-12-29T04:22:07;2.10;;;1.17;;
75499;SDS011;64076;51.466;7.260;2023-12-29T04:24:33;3.83;;;1.23;;
75499;SDS011;64076;51.466;7.260;2023-12-29T04:26:59;2.85;;;1.10;;
75499;SDS011;64076;51.466;7.260;2023-12-29T04:29:24;2.92;;;1.23;;
75499;SDS011;64076;51.466;7.260;2023-12-29T04:31:50;4.70;;;1.43;;
75499;SDS011;64076;51.466;7.260;2023-12-29T04:34:15;2.80;;;1.17;;
75499;SDS011;64076;51.466;7.260;2023-12-29T04:36:41;4.17;;;1.20;;
75499;SDS011;64076;51.466;7.260;2023-12-29T04:39:06;3.07;;;1.10;;
75499;SDS011;64076;51.466;7.260;2023-12-29T04:41:35;2.53;;;1.20;;
75499;SDS011;64076;51.466;7.260;2023-12-29T04:44:00;2.70;;;1.13;;
75499;SDS011;64076;51.466;7.260;2023-12-29T04:46:26;2.53;;;0.97;;
75499;SDS011;64076;51.466;7.260;2023-12-29T04:48:51;2.30;;;1.30;;
75499;SDS011;64076;51.466;7.260;2023-12-29T04:51:18;3.10;;;1.20;;
75499;SDS011;64076;51.466;7.260;2023-12-29T04:53:44;3.30;;;1.10;;
75499;SDS011;64076;51.466;7.260;2023-12-29T04:56:09;2.20;;;1.00;;
75499;SDS011;64076;51.466;7.260;2023-12-29T04:58:35;2.00;;;1.03;;
75499;SDS011;64076;51.466;7.260;2023-12-29T05:01:00;2.30;;;1.30;;
75499;SDS011;64076;51.466;7.260;2023-12-29T05:03:26;3.15;;;1.17;;
75499;SDS011;64076;51.466;7.260;2023-12-29T05:05:51;2.47;;;1.17;;
75499;SDS011;64076;51.466;7.260;2023-12-29T05:08:17;2.73;;;1.20;;
75499;SDS011;64076;51.466;7.260;2023-12-29T05:10:43;3.53;;;1.13;;
75499;SDS011;64076;51.466;7.260;2023-12-29T05:13:08;2.43;;;1.10;;
75499;SDS011;64076;51.466;7.260;2023-12-29T05:15:34;2.70;;;1.13;;
75499;SDS011;64076;51.466;7.260;2023-12-29T05:17:59;2.17;;;1.10;;
75499;SDS011;64076;51.466;7.260;2023-12-29T05:20:25;2.60;;;1.10;;
75499;SDS011;64076;51.466;7.260;2023-12-29T05:22:50;2.73;;;1.20;;
75499;SDS011;64076;51.466;7.260;2023-12-29T05:25:16;1.88;;;1.00;;
75499;SDS011;64076;51.466;7.260;2023-12-29T05:27:41;2.43;;;1.03;;
75499;SDS011;64076;51.466;7.260;2023-12-29T05:30:07;2.90;;;1.23;;
75499;SDS011;64076;51.466;7.260;2023-12-29T05:32:33;2.63;;;1.00;;
75499;SDS011;64076;51.466;7.260;2023-12-29T05:35:01;2.20;;;0.93;;
75499;SDS011;64076;51.466;7.260;2023-12-29T05:37:27;2.17;;;1.30;;
75499;SDS011;64076;51.466;7.260;2023-12-29T05:39:52;3.40;;;1.23;;
75499;SDS011;64076;51.466;7.260;2023-12-29T05:42:18;2.73;;;1.20;;
75499;SDS011;64076;51.466;7.260;2023-12-29T05:44:43;1.57;;;0.87;;
75499;SDS011;64076;51.466;7.260;2023-12-29T05:47:09;2.38;;;1.10;;
75499;SDS011;64076;51.466;7.260;2023-12-29T05:49:35;3.27;;;1.30;;
75499;SDS011;64076;51.466;7.260;2023-12-29T05:52:07;2.92;;;0.98;;
75499;SDS011;64076;51.466;7.260;2023-12-29T05:54:33;2.20;;;1.10;;
75499;SDS011;64076;51.466;7.260;2023-12-29T05:56:59;2.67;;;1.33;;
75499;SDS011;64076;51.466;7.260;2023-12-29T05:59:25;2.67;;;1.13;;
75499;SDS011;64076;51.466;7.260;2023-12-29T06:01:50;2.40;;;1.10;;
75499;SDS011;64076;51.466;7.260;2023-12-29T06:04:16;2.38;;;1.10;;
75499;SDS011;64076;51.466;7.260;2023-12-29T06:06:42;3.43;;;1.40;;
75499;SDS011;64076;51.466;7.260;2023-12-29T06:09:09;3.15;;;1.30;;
75499;SDS011;64076;51.466;7.260;2023-12-29T06:11:35;3.08;;;1.40;;
75499;SDS011;64076;51.466;7.260;2023-12-29T06:14:01;2.77;;;1.10;;
75499;SDS011;64076;51.466;7.260;2023-12-29T06:16:26;1.90;;;1.00;;
75499;SDS011;64076;51.466;7.260;2023-12-29T06:18:52;2.43;;;1.17;;
75499;SDS011;64076;51.466;7.260;2023-12-29T06:21:18;3.40;;;1.15;;
75499;SDS011;64076;51.466;7.260;2023-12-29T06:23:44;2.43;;;0.90;;
75499;SDS011;64076;51.466;7.260;2023-12-29T06:26:13;2.60;;;0.98;;
75499;SDS011;64076;51.466;7.260;2023-12-29T06:28:43;1.67;;;0.80;;
75499;SDS011;64076;51.466;7.260;2023-12-29T06:31:09;2.17;;;0.70;;
75499;SDS011;64076;51.466;7.260;2023-12-29T06:33:35;2.20;;;1.03;;
75499;SDS011;64076;51.466;7.260;2023-12-29T06:36:01;1.83;;;0.88;;
75499;SDS011;64076;51.466;7.260;2023-12-29T06:38:27;1.77;;;0.73;;
75499;SDS011;64076;51.466;7.260;2023-12-29T06:40:52;1.63;;;0.60;;
75499;SDS011;64076;51.466;7.260;2023-12-29T06:43:18;1.50;;;0.70;;
75499;SDS011;64076;51.466;7.260;2023-12-29T06:45:44;1.88;;;0.80;;
75499;SDS011;64076;51.466;7.260;2023-12-29T06:48:09;1.47;;;0.70;;
75499;SDS011;64076;51.466;7.260;2023-12-29T06:50:35;1.60;;;0.67;;
75499;SDS011;64076;51.466;7.260;2023-12-29T06:53:02;2.15;;;0.70;;
75499;SDS011;64076;51.466;7.260;2023-12-29T06:55:28;1.70;;;0.70;;
75499;SDS011;64076;51.466;7.260;2023-12-29T06:57:53;1.57;;;0.70;;
75499;SDS011;64076;51.466;7.260;2023-12-29T07:00:22;1.33;;;0.57;;
75499;SDS011;64076;51.466;7.260;2023-12-29T07:02:48;1.65;;;0.80;;
75499;SDS011;64076;51.466;7.260;2023-12-29T07:05:13;1.73;;;1.10;;
75499;SDS011;64076;51.466;7.260;2023-12-29T07:07:39;1.85;;;0.98;;
75499;SDS011;64076;51.466;7.260;2023-12-29T07:10:05;1.50;;;0.40;;
75499;SDS011;64076;51.466;7.260;2023-12-29T07:12:31;1.60;;;0.80;;
75499;SDS011;64076;51.466;7.260;2023-12-29T07:14:56;1.93;;;0.90;;
75499;SDS011;64076;51.466;7.260;2023-12-29T07:17:22;2.10;;;0.68;;
75499;SDS011;64076;51.466;7.260;2023-12-29T07:19:48;1.60;;;0.80;;
75499;SDS011;64076;51.466;7.260;2023-12-29T07:22:14;1.90;;;0.63;;
75499;SDS011;64076;51.466;7.260;2023-12-29T07:24:40;1.50;;;0.80;;
75499;SDS011;64076;51.466;7.260;2023-12-29T07:27:06;1.37;;;0.60;;
75499;SDS011;64076;51.466;7.260;2023-12-29T07:29:32;2.10;;;0.70;;
75499;SDS011;64076;51.466;7.260;2023-12-29T07:31:58;1.30;;;0.70;;
75499;SDS011;64076;51.466;7.260;2023-12-29T07:34:24;1.58;;;0.65;;
75499;SDS011;64076;51.466;7.260;2023-12-29T07:36:50;1.60;;;0.80;;
75499;SDS011;64076;51.466;7.260;2023-12-29T07:39:16;1.65;;;0.70;;
75499;SDS011;64076;51.466;7.260;2023-12-29T07:41:42;1.30;;;0.63;;
75499;SDS011;64076;51.466;7.260;2023-12-29T07:44:11;1.47;;;0.80;;
75499;SDS011;64076;51.466;7.260;2023-12-29T07:46:37;1.50;;;0.77;;
75499;SDS011;64076;51.466;7.260;2023-12-29T07:49:04;1.30;;;0.63;;
75499;SDS011;64076;51.466;7.260;2023-12-29T07:51:29;1.20;;;0.50;;
75499;SDS011;64076;51.466;7.260;2023-12-29T07:53:55;1.30;;;0.65;;
75499;SDS011;64076;51.466;7.260;2023-12-29T07:56:21;1.50;;;0.60;;
75499;SDS011;64076;51.466;7.260;2023-12-29T07:58:46;1.30;;;0.50;;
75499;SDS011;64076;51.466;7.260;2023-12-29T08:01:12;1.60;;;0.70;;
75499;SDS011;64076;51.466;7.260;2023-12-29T08:03:37;1.63;;;0.70;;
75499;SDS011;64076;51.466;7.260;2023-12-29T08:06:03;1.07;;;0.57;;
75499;SDS011;64076;51.466;7.260;2023-12-29T08:08:28;1.75;;;0.80;;
75499;SDS011;64076;51.466;7.260;2023-12-29T08:10:54;1.80;;;0.50;;
75499;SDS011;64076;51.466;7.260;2023-12-29T08:13:19;1.67;;;0.70;;
75499;SDS011;64076;51.466;7.260;2023-12-29T08:15:45;1.35;;;0.60;;
75499;SDS011;64076;51.466;7.260;2023-12-29T08:18:10;1.40;;;0.63;;
75499;SDS011;64076;51.466;7.260;2023-12-29T08:20:36;1.67;;;0.80;;
75499;SDS011;64076;51.466;7.260;2023-12-29T08:23:02;1.50;;;0.80;;
75499;SDS011;64076;51.466;7.260;2023-12-29T08:25:28;1.53;;;0.63;;
75499;SDS011;64076;51.466;7.260;2023-12-29T08:27:54;1.40;;;0.85;;
75499;SDS011;64076;51.466;7.260;2023-12-29T08:30:21;1.30;;;0.70;;
75499;SDS011;64076;51.466;7.260;2023-12-29T08:32:46;1.60;;;0.60;;
75499;SDS011;64076;51.466;7.260;2023-12-29T08:35:12;1.27;;;0.68;;
75499;SDS011;64076;51.466;7.260;2023-12-29T08:37:38;1.53;;;0.63;;
75499;SDS011;64076;51.466;7.260;2023-12-29T08:40:03;1.63;;;0.70;;
75499;SDS011;64076;51.466;7.260;2023-12-29T08:42:29;1.40;;;0.82;;
75499;SDS011;64076;51.466;7.260;2023-12-29T08:44:55;1.30;;;0.77;;
75499;SDS011;64076;51.466;7.260;2023-12-29T08:47:21;1.83;;;0.87;;
75499;SDS011;64076;51.466;7.260;2023-12-29T08:49:46;1.45;;;0.50;;
75499;SDS011;64076;51.466;7.260;2023-12-29T08:52:13;1.10;;;0.50;;
75499;SDS011;64076;51.466;7.260;2023-12-29T08:54:39;1.58;;;0.85;;
75499;SDS011;64076;51.466;7.260;2023-12-29T08:57:05;1.53;;;0.90;;
75499;SDS011;64076;51.466;7.260;2023-12-29T08:59:31;1.23;;;0.55;;
75499;SDS011;64076;51.466;7.260;2023-12-29T09:01:57;1.27;;;0.80;;
75499;SDS011;64076;51.466;7.260;2023-12-29T09:04:23;1.20;;;0.50;;
75499;SDS011;64076;51.466;7.260;2023-12-29T09:06:48;1.30;;;0.60;;
75499;SDS011;64076;51.466;7.260;2023-12-29T09:09:14;1.50;;;0.60;;
75499;SDS011;64076;51.466;7.260;2023-12-29T09:11:39;1.50;;;0.80;;
75499;SDS011;64076;51.466;7.260;2023-12-29T09:14:06;1.17;;;0.65;;
75499;SDS011;64076;51.466;7.260;2023-12-29T09:16:32;1.20;;;0.60;;
75499;SDS011;64076;51.466;7.260;2023-12-29T09:19:00;1.20;;;0.60;;
75499;SDS011;64076;51.466;7.260;2023-12-29T09:21:25;1.27;;;0.57;;
75499;SDS011;64076;51.466;7.260;2023-12-29T09:23:51;1.20;;;0.60;;
75499;SDS011;64076;51.466;7.260;2023-12-29T09:26:17;1.33;;;0.60;;
75499;SDS011;64076;51.466;7.260;2023-12-29T09:28:42;1.30;;;0.70;;
75499;SDS011;64076;51.466;7.260;2023-12-29T09:31:11;1.30;;;0.70;;
75499;SDS011;64076;51.466;7.260;2023-12-29T09:33:37;1.10;;;0.60;;
75499;SDS011;64076;51.466;7.260;2023-12-29T09:36:03;1.20;;;0.60;;
75499;SDS011;64076;51.466;7.260;2023-12-29T09:38:29;1.20;;;0.70;;
75499;SDS011;64076;51.466;7.260;2023-12-29T09:40:57;1.75;;;0.70;;
75499;SDS011;64076;51.466;7.260;2023-12-29T09:43:28;1.02;;;0.50;;
75499;SDS011;64076;51.466;7.260;2023-12-29T09:45:56;1.00;;;0.50;;
75499;SDS011;64076;51.466;7.260;2023-12-29T09:48:23;1.10;;;0.50;;
75499;SDS011;64076;51.466;7.260;2023-12-29T09:50:51;0.93;;;0.33;;
75499;SDS011;64076;51.466;7.260;2023-12-29T09:53:19;1.30;;;0.60;;
75499;SDS011;64076;51.466;7.260;2023-12-29T09:55:48;1.40;;;0.52;;
75499;SDS011;64076;51.466;7.260;2023-12-29T09:58:13;1.13;;;0.40;;
75499;SDS011;64076;51.466;7.260;2023-12-29T10:00:41;1.17;;;0.50;;
75499;SDS011;64076;51.466;7.260;2023-12-29T10:03:07;1.20;;;0.40;;
75499;SDS011;64076;51.466;7.260;2023-12-29T10:05:33;1.05;;;0.40;;
75499;SDS011;64076;51.466;7.260;2023-12-29T10:08:00;1.10;;;0.50;;
75499;SDS011;64076;51.466;7.260;2023-12-29T10:10:30;0.90;;;0.40;;
75499;SDS011;64076;51.466;7.260;2023-12-29T10:12:57;1.05;;;0.40;;
75499;SDS011;64076;51.466;7.260;2023-12-29T10:15:26;1.00;;;0.30;;
75499;SDS011;64076;51.466;7.260;2023-12-29T10:18:20;1.02;;;0.40;;
75499;SDS011;64076;51.466;7.260;2023-12-29T10:23:47;0.93;;;0.50;;
75499;SDS011;64076;51.466;7.260;2023-12-29T10:26:21;1.00;;;0.30;;
75499;SDS011;64076;51.466;7.260;2023-12-29T10:28:48;1.33;;;0.70;;
75499;SDS011;64076;51.466;7.260;2023-12-29T10:31:17;1.30;;;0.40;;
75499;SDS011;64076;51.466;7.260;2023-12-29T10:33:42;1.13;;;0.40;;
75499;SDS011;64076;51.466;7.260;2023-12-29T10:36:08;0.98;;;0.40;;
75499;SDS011;64076;51.466;7.260;2023-12-29T10:38:35;0.90;;;0.35;;
75499;SDS011;64076;51.466;7.260;2023-12-29T10:41:13;1.00;;;0.40;;
75499;SDS011;64076;51.466;7.260;2023-12-29T10:43:40;0.90;;;0.30;;
75499;SDS011;64076;51.466;7.260;2023-12-29T10:46:07;0.90;;;0.30;;
75499;SDS011;64076;51.466;7.260;2023-12-29T10:48:34;1.10;;;0.45;;
75499;SDS011;64076;51.466;7.260;2023-12-29T10:51:00;1.10;;;0.40;;
75499;SDS011;64076;51.466;7.260;2023-12-29T10:53:29;1.00;;;0.40;;
75499;SDS011;64076;51.466;7.260;2023-12-29T10:55:55;0.90;;;0.30;;
75499;SDS011;64076;51.466;7.260;2023-12-29T10:58:23;0.90;;;0.30;;
75499;SDS011;64076;51.466;7.260;2023-12-29T11:00:52;1.00;;;0.40;;
75499;SDS011;64076;51.466;7.260;2023-12-29T11:03:18;1.00;;;0.30;;
75499;SDS011;64076;51.466;7.260;2023-12-29T11:05:44;1.00;;;0.40;;
75499;SDS011;64076;51.466;7.260;2023-12-29T11:08:19;1.00;;;0.50;;
75499;SDS011;64076;51.466;7.260;2023-12-29T11:10:49;0.90;;;0.40;;
75499;SDS011;64076;51.466;7.260;2023-12-29T11:13:15;0.90;;;0.40;;
75499;SDS011;64076;51.466;7.260;2023-12-29T11:15:41;1.10;;;0.50;;
75499;SDS011;64076;51.466;7.260;2023-12-29T11:18:11;1.03;;;0.40;;
75499;SDS011;64076;51.466;7.260;2023-12-29T11:20:41;1.05;;;0.40;;
75499;SDS011;64076;51.466;7.260;2023-12-29T11:23:08;1.00;;;0.32;;
75499;SDS011;64076;51.466;7.260;2023-12-29T11:25:35;0.90;;;0.40;;
75499;SDS011;64076;51.466;7.260;2023-12-29T11:28:00;1.00;;;0.40;;
75499;SDS011;64076;51.466;7.260;2023-12-29T11:30:27;1.00;;;0.30;;
75499;SDS011;64076;51.466;7.260;2023-12-29T11:32:55;1.10;;;0.40;;
75499;SDS011;64076;51.466;7.260;2023-12-29T11:40:46;0.90;;;0.32;;
75499;SDS011;64076;51.466;7.260;2023-12-29T11:43:24;0.95;;;0.40;;
75499;SDS011;64076;51.466;7.260;2023-12-29T11:45:50;0.80;;;0.40;;
75499;SDS011;64076;51.466;7.260;2023-12-29T11:48:52;1.80;;;0.50;;
75499;SDS011;64076;51.466;7.260;2023-12-29T11:51:31;1.77;;;0.47;;
75499;SDS011;64076;51.466;7.260;2023-12-29T11:54:00;1.30;;;0.50;;
75499;SDS011;64076;51.466;7.260;2023-12-29T11:56:33;1.00;;;0.50;;
75499;SDS011;64076;51.466;7.260;2023-12-29T12:01:42;1.10;;;0.50;;
75499;SDS011;64076;51.466;7.260;2023-12-29T12:07:16;1.23;;;0.55;;
75499;SDS011;64076;51.466;7.260;2023-12-29T12:09:48;1.10;;;0.63;;
75499;SDS011;64076;51.466;7.260;2023-12-29T12:12:15;1.30;;;0.60;;
75499;SDS011;64076;51.466;7.260;2023-12-29T12:15:05;1.17;;;0.63;;
75499;SDS011;64076;51.466;7.260;2023-12-29T12:17:53;0.93;;;0.45;;
75499;SDS011;64076;51.466;7.260;2023-12-29T12:20:19;1.20;;;0.45;;
75499;SDS011;64076;51.466;7.260;2023-12-29T12:22:45;1.20;;;0.60;;
75499;SDS011;64076;51.466;7.260;2023-12-29T12:25:15;1.23;;;0.50;;
75499;SDS011;64076;51.466;7.260;2023-12-29T12:27:40;1.25;;;0.40;;
75499;SDS011;64076;51.466;7.260;2023-12-29T12:30:06;1.53;;;0.60;;
75499;SDS011;64076;51.466;7.260;2023-12-29T12:32:34;1.25;;;0.60;;
75499;SDS011;64076;51.466;7.260;2023-12-29T12:35:00;1.10;;;0.50;;
75499;SDS011;64076;51.466;7.260;2023-12-29T12:37:27;1.30;;;0.60;;
75499;SDS011;64076;51.466;7.260;2023-12-29T12:39:54;1.40;;;0.70;;
75499;SDS011;64076;51.466;7.260;2023-12-29T12:42:20;1.20;;;0.50;;
75499;SDS011;64076;51.466;7.260;2023-12-29T12:44:48;1.20;;;0.60;;
75499;SDS011;64076;51.466;7.260;2023-12-29T12:47:24;1.17;;;0.50;;
75499;SDS011;64076;51.466;7.260;2023-12-29T12:49:59;1.20;;;0.63;;
75499;SDS011;64076;51.466;7.260;2023-12-29T12:52:26;1.25;;;0.50;;
75499;SDS011;64076;51.466;7.260;2023-12-29T12:54:55;1.30;;;0.60;;
75499;SDS011;64076;51.466;7.260;2023-12-29T12:57:20;1.33;;;0.57;;
75499;SDS011;64076;51.466;7.260;2023-12-29T12:59:47;1.10;;;0.50;;
75499;SDS011;64076;51.466;7.260;2023-12-29T13:02:14;1.05;;;0.40;;
75499;SDS011;64076;51.466;7.260;2023-12-29T13:04:41;1.30;;;0.50;;
75499;SDS011;64076;51.466;7.260;2023-12-29T13:07:07;1.17;;;0.70;;
75499;SDS011;64076;51.466;7.260;2023-12-29T13:09:35;1.30;;;0.60;;
75499;SDS011;64076;51.466;7.260;2023-12-29T13:12:08;1.38;;;0.63;;
75499;SDS011;64076;51.466;7.260;2023-12-29T13:14:34;1.40;;;0.60;;
75499;SDS011;64076;51.466;7.260;2023-12-29T13:17:04;1.50;;;0.70;;
75499;SDS011;64076;51.466;7.260;2023-12-29T13:19:31;1.10;;;0.50;;
75499;SDS011;64076;51.466;7.260;2023-12-29T13:21:57;1.52;;;0.60;;
75499;SDS011;64076;51.466;7.260;2023-12-29T13:24:24;1.13;;;0.60;;
75499;SDS011;64076;51.466;7.260;2023-12-29T13:26:55;1.10;;;0.50;;
75499;SDS011;64076;51.466;7.260;2023-12-29T13:29:26;1.00;;;0.50;;
75499;SDS011;64076;51.466;7.260;2023-12-29T13:31:55;1.37;;;0.60;;
75499;SDS011;64076;51.466;7.260;2023-12-29T13:34:29;1.67;;;0.50;;
75499;SDS011;64076;51.466;7.260;2023-12-29T13:37:12;1.58;;;0.60;;
75499;SDS011;64076;51.466;7.260;2023-12-29T13:42:19;0.93;;;0.40;;
75499;SDS011;64076;51.466;7.260;2023-12-29T13:44:49;1.30;;;0.50;;
75499;SDS011;64076;51.466;7.260;2023-12-29T13:47:16;1.20;;;0.52;;
75499;SDS011;64076;51.466;7.260;2023-12-29T13:49:42;1.10;;;0.50;;
75499;SDS011;64076;51.466;7.260;2023-12-29T13:52:08;1.23;;;0.60;;
75499;SDS011;64076;51.466;7.260;2023-12-29T13:54:43;1.20;;;0.50;;
75499;SDS011;64076;51.466;7.260;2023-12-29T13:57:08;0.98;;;0.35;;
75499;SDS011;64076;51.466;7.260;2023-12-29T13:59:34;1.00;;;0.50;;
75499;SDS011;64076;51.466;7.260;2023-12-29T14:02:03;1.20;;;0.50;;
75499;SDS011;64076;51.466;7.260;2023-12-29T14:05:10;1.47;;;0.70;;
75499;SDS011;64076;51.466;7.260;2023-12-29T14:07:36;1.23;;;0.60;;
75499;SDS011;64076;51.466;7.260;2023-12-29T14:10:01;1.30;;;0.60;;
75499;SDS011;64076;51.466;7.260;2023-12-29T14:12:27;1.20;;;0.60;;
75499;SDS011;64076;51.466;7.260;2023-12-29T14:14:53;1.10;;;0.50;;
75499;SDS011;64076;51.466;7.260;2023-12-29T14:17:21;1.30;;;0.60;;
75499;SDS011;64076;51.466;7.260;2023-12-29T14:19:47;1.33;;;0.70;;
75499;SDS011;64076;51.466;7.260;2023-12-29T14:22:20;1.38;;;0.57;;
75499;SDS011;64076;51.466;7.260;2023-12-29T14:24:59;1.00;;;0.50;;
75499;SDS011;64076;51.466;7.260;2023-12-29T14:27:26;1.20;;;0.60;;
75499;SDS011;64076;51.466;7.260;2023-12-29T14:29:51;1.35;;;0.63;;
75499;SDS011;64076;51.466;7.260;2023-12-29T14:32:17;1.20;;;0.60;;
75499;SDS011;64076;51.466;7.260;2023-12-29T14:34:43;1.20;;;0.60;;
75499;SDS011;64076;51.466;7.260;2023-12-29T14:37:11;1.33;;;0.50;;
75499;SDS011;64076;51.466;7.260;2023-12-29T14:39:36;1.20;;;0.77;;
75499;SDS011;64076;51.466;7.260;2023-12-29T14:42:02;1.30;;;0.70;;
75499;SDS011;64076;51.466;7.260;2023-12-29T14:44:28;1.20;;;0.57;;
75499;SDS011;64076;51.466;7.260;2023-12-29T14:46:53;1.33;;;0.65;;
75499;SDS011;64076;51.466;7.260;2023-12-29T14:49:20;1.17;;;0.55;;
75499;SDS011;64076;51.466;7.260;2023-12-29T14:51:45;1.10;;;0.60;;
75499;SDS011;64076;51.466;7.260;2023-12-29T14:54:10;1.27;;;0.70;;
75499;SDS011;64076;51.466;7.260;2023-12-29T14:56:36;1.27;;;0.63;;
75499;SDS011;64076;51.466;7.260;2023-12-29T14:59:02;1.63;;;0.60;;
75499;SDS011;64076;51.466;7.260;2023-12-29T15:01:27;1.13;;;0.50;;
75499;SDS011;64076;51.466;7.260;2023-12-29T15:03:53;1.20;;;0.70;;
75499;SDS011;64076;51.466;7.260;2023-12-29T15:06:18;1.20;;;0.50;;